createdAt,value
2023-09-18T00:00:36.509Z,22.13
2023-09-18T00:03:59.730Z,22.11
2023-09-18T00:07:02.686Z,22.10
2023-09-18T00:10:15.927Z,22.12
2023-09-18T00:13:20.340Z,22.10
2023-09-18T00:16:25.347Z,22.12
2023-09-18T00:19:30.788Z,22.14
2023-09-18T00:22:34.876Z,22.13
2023-09-18T00:25:43.786Z,22.10
2023-09-18T00:28:46.620Z,22.07
2023-09-18T00:31:49.646Z,22.01
2023-09-18T00:34:54.877Z,21.95
2023-09-18T00:38:05.102Z,21.95
2023-09-18T00:41:08.236Z,21.91
2023-09-18T00:44:11.177Z,21.92
2023-09-18T00:47:22.706Z,21.88
2023-09-18T00:50:28.749Z,21.89
2023-09-18T00:53:32.618Z,21.90
2023-09-18T00:56:35.838Z,21.87
2023-09-18T00:59:39.770Z,21.81
2023-09-18T01:02:44.934Z,21.80
2023-09-18T01:05:47.885Z,21.74
2023-09-18T01:08:54.889Z,21.71
2023-09-18T01:12:01.364Z,21.68
2023-09-18T01:15:09.106Z,21.62
2023-09-18T01:18:12.071Z,21.59
2023-09-18T01:21:14.858Z,21.56
2023-09-18T01:24:17.800Z,21.60
2023-09-18T01:27:21.019Z,21.60
2023-09-18T01:30:25.876Z,21.52
2023-09-18T01:33:29.776Z,21.45
2023-09-18T01:36:32.623Z,21.44
2023-09-18T01:39:35.978Z,21.44
2023-09-18T01:42:39.025Z,21.40
2023-09-18T01:45:41.986Z,21.37
2023-09-18T01:48:47.526Z,21.33
2023-09-18T01:51:50.391Z,21.27
2023-09-18T01:54:55.959Z,21.25
2023-09-18T01:58:00.236Z,21.25
2023-09-18T02:01:06.308Z,21.21
2023-09-18T02:04:25.325Z,21.18
2023-09-18T02:07:33.003Z,21.18
2023-09-18T02:10:36.090Z,21.18
2023-09-18T02:13:41.034Z,21.13
2023-09-18T02:16:47.740Z,21.08
2023-09-18T02:19:50.574Z,21.08
2023-09-18T02:22:54.130Z,21.02
2023-09-18T02:25:59.696Z,21.02
2023-09-18T02:29:03.590Z,21.01
2023-09-18T02:32:12.523Z,20.96
2023-09-18T02:35:18.189Z,20.94
2023-09-18T02:38:20.835Z,20.87
2023-09-18T02:41:23.880Z,20.88
2023-09-18T02:44:27.212Z,20.84
2023-09-18T02:47:30.307Z,20.87
2023-09-18T02:50:32.923Z,20.82
2023-09-18T02:53:36.228Z,20.82
2023-09-18T02:56:40.134Z,20.78
2023-09-18T02:59:43.396Z,20.73
2023-09-18T03:02:46.115Z,20.67
2023-09-18T03:05:49.301Z,20.66
2023-09-18T03:08:52.010Z,20.64
2023-09-18T03:11:55.336Z,20.65
2023-09-18T03:14:57.821Z,20.53
2023-09-18T03:18:02.012Z,20.54
2023-09-18T03:21:05.506Z,20.54
2023-09-18T03:24:09.788Z,20.51
2023-09-18T03:27:15.227Z,20.51
2023-09-18T03:30:19.056Z,20.52
2023-09-18T03:33:21.797Z,20.51
2023-09-18T03:36:25.134Z,20.50
2023-09-18T03:39:27.712Z,20.49
2023-09-18T03:42:30.811Z,20.44
2023-09-18T03:45:38.507Z,20.42
2023-09-18T03:48:41.457Z,20.39
2023-09-18T03:51:45.328Z,20.31
2023-09-18T03:54:48.695Z,20.30
2023-09-18T03:57:51.738Z,20.32
2023-09-18T04:00:54.881Z,20.30
2023-09-18T04:03:58.962Z,20.27
2023-09-18T04:07:06.408Z,20.22
2023-09-18T04:10:10.020Z,20.17
2023-09-18T04:13:12.679Z,20.15
2023-09-18T04:16:18.670Z,20.14
2023-09-18T04:19:21.458Z,20.11
2023-09-18T04:22:24.211Z,20.10
2023-09-18T04:25:27.392Z,20.07
2023-09-18T04:28:32.012Z,20.05
2023-09-18T04:31:35.498Z,20.03
2023-09-18T04:34:38.157Z,20.04
2023-09-18T04:37:41.148Z,20.03
2023-09-18T04:40:44.434Z,20.06
2023-09-18T04:43:49.657Z,20.05
2023-09-18T04:46:52.455Z,20.09
2023-09-18T04:49:55.208Z,20.08
2023-09-18T04:52:58.982Z,20.08
2023-09-18T04:56:02.137Z,20.07
2023-09-18T04:59:07.263Z,20.08
2023-09-18T05:02:11.305Z,20.13
2023-09-18T05:05:15.320Z,20.18
2023-09-18T05:08:18.595Z,20.17
2023-09-18T05:11:21.846Z,20.21
2023-09-18T05:14:24.596Z,20.22
2023-09-18T05:17:43.042Z,20.20
2023-09-18T05:20:46.393Z,20.24
2023-09-18T05:23:49.355Z,20.29
2023-09-18T05:26:54.131Z,20.30
2023-09-18T05:29:56.866Z,20.40
2023-09-18T05:33:09.678Z,20.42
2023-09-18T05:36:13.857Z,20.43
2023-09-18T05:39:16.587Z,20.44
2023-09-18T05:42:19.279Z,20.44
2023-09-18T05:45:22.061Z,20.46
2023-09-18T05:48:24.904Z,20.47
2023-09-18T05:51:28.476Z,20.54
2023-09-18T05:54:31.316Z,20.63
2023-09-18T05:57:34.102Z,20.73
2023-09-18T06:00:38.163Z,20.81
2023-09-18T06:03:43.838Z,20.86
2023-09-18T06:06:47.553Z,20.94
2023-09-18T06:09:50.772Z,20.95
2023-09-18T06:12:53.928Z,21.02
2023-09-18T06:15:57.193Z,21.14
2023-09-18T06:19:01.337Z,21.26
2023-09-18T06:22:04.467Z,21.36
2023-09-18T06:25:07.655Z,21.53
2023-09-18T06:28:10.749Z,21.60
2023-09-18T06:31:13.285Z,21.62
2023-09-18T06:34:16.501Z,21.72
2023-09-18T06:37:22.140Z,21.81
2023-09-18T06:40:26.445Z,21.87
2023-09-18T06:43:28.906Z,21.99
2023-09-18T06:46:33.351Z,22.19
2023-09-18T06:49:35.948Z,22.46
2023-09-18T06:52:39.046Z,22.69
2023-09-18T06:55:44.240Z,22.90
2023-09-18T06:58:49.140Z,23.06
2023-09-18T07:01:51.872Z,23.26
2023-09-18T07:04:55.025Z,23.46
2023-09-18T07:08:00.072Z,23.69
2023-09-18T07:11:06.087Z,23.65
2023-09-18T07:14:09.252Z,23.65
2023-09-18T07:17:12.335Z,23.73
2023-09-18T07:20:15.761Z,24.13
2023-09-18T07:23:19.250Z,24.43
2023-09-18T07:26:21.754Z,24.68
2023-09-18T07:29:26.581Z,24.96
2023-09-18T07:32:38.189Z,25.25
2023-09-18T07:35:41.956Z,25.55
2023-09-18T07:38:45.515Z,25.88
2023-09-18T07:41:51.508Z,26.02
2023-09-18T07:44:55.109Z,26.23
2023-09-18T07:47:59.753Z,26.99
2023-09-18T07:51:05.635Z,30.21
2023-09-18T07:54:08.850Z,31.85
2023-09-18T07:57:11.377Z,31.62
2023-09-18T08:00:16.776Z,30.85
2023-09-18T08:03:20.065Z,30.14
2023-09-18T08:06:24.282Z,29.65
2023-09-18T08:09:27.450Z,29.40
2023-09-18T08:12:30.224Z,29.26
2023-09-18T08:15:33.114Z,29.34
2023-09-18T08:18:36.389Z,29.54
2023-09-18T08:21:39.386Z,29.82
2023-09-18T08:24:42.419Z,29.97
2023-09-18T08:27:45.986Z,30.21
2023-09-18T08:30:48.853Z,30.43
2023-09-18T08:33:52.033Z,30.53
2023-09-18T08:36:55.107Z,30.88
2023-09-18T08:39:57.958Z,31.22
2023-09-18T08:43:01.435Z,31.05
2023-09-18T08:46:05.423Z,31.02
2023-09-18T08:49:08.807Z,31.31
2023-09-18T08:52:12.764Z,31.40
2023-09-18T08:55:16.065Z,31.56
2023-09-18T08:58:20.767Z,31.85
2023-09-18T09:01:23.733Z,32.10
2023-09-18T09:04:27.382Z,32.32
2023-09-18T09:07:32.508Z,32.53
2023-09-18T09:10:35.273Z,33.10
2023-09-18T09:13:41.993Z,33.48
2023-09-18T09:16:50.385Z,33.56
2023-09-18T09:19:53.039Z,33.63
2023-09-18T09:23:01.415Z,33.46
2023-09-18T09:26:14.162Z,33.34
2023-09-18T09:29:19.626Z,33.38
2023-09-18T09:32:22.538Z,33.17
2023-09-18T09:35:25.373Z,33.18
2023-09-18T09:38:35.761Z,33.33
2023-09-18T09:41:38.756Z,33.12
2023-09-18T09:44:41.752Z,33.29
2023-09-18T09:47:44.746Z,33.40
2023-09-18T09:50:50.136Z,33.40
2023-09-18T09:53:53.974Z,33.86
2023-09-18T09:56:56.690Z,34.13
2023-09-18T10:00:09.533Z,33.90
2023-09-18T10:03:14.433Z,33.97
2023-09-18T10:06:17.030Z,33.97
2023-09-18T10:09:21.144Z,34.21
2023-09-18T10:12:24.890Z,34.59
2023-09-18T10:15:28.920Z,34.61
2023-09-18T10:18:47.849Z,34.73
2023-09-18T10:21:55.623Z,34.92
2023-09-18T10:25:01.540Z,35.56
2023-09-18T10:28:04.947Z,35.60
2023-09-18T10:31:08.613Z,35.43
2023-09-18T10:34:12.996Z,34.96
2023-09-18T10:37:16.352Z,34.55
2023-09-18T10:40:19.810Z,34.62
2023-09-18T10:43:22.593Z,34.70
2023-09-18T10:46:26.987Z,34.70
2023-09-18T10:49:29.767Z,34.31
2023-09-18T10:52:32.808Z,34.31
2023-09-18T10:55:35.287Z,34.38
2023-09-18T10:58:40.006Z,34.51
2023-09-18T11:01:42.931Z,34.32
2023-09-18T11:04:46.666Z,34.37
2023-09-18T11:07:48.965Z,34.42
2023-09-18T11:11:05.452Z,34.31
2023-09-18T11:14:12.577Z,34.15
2023-09-18T11:17:30.840Z,33.95
2023-09-18T11:20:33.545Z,33.89
2023-09-18T11:23:44.034Z,34.12
2023-09-18T11:26:50.918Z,34.68
2023-09-18T11:29:56.235Z,34.93
2023-09-18T11:32:59.618Z,34.95
2023-09-18T11:36:08.655Z,34.94
2023-09-18T11:39:12.928Z,35.15
2023-09-18T11:42:18.994Z,35.06
2023-09-18T11:45:22.330Z,35.19
2023-09-18T11:48:29.123Z,34.94
2023-09-18T11:51:31.846Z,34.74
2023-09-18T11:54:37.678Z,34.39
2023-09-18T11:57:44.007Z,34.09
2023-09-18T12:00:47.290Z,33.90
2023-09-18T12:03:56.694Z,33.58
2023-09-18T12:07:01.214Z,33.34
2023-09-18T12:10:10.125Z,33.27
2023-09-18T12:13:13.513Z,33.37
2023-09-18T12:16:16.542Z,33.26
2023-09-18T12:19:19.956Z,33.15
2023-09-18T12:22:29.919Z,32.88
2023-09-18T12:25:33.267Z,32.63
2023-09-18T12:28:36.638Z,32.66
2023-09-18T12:31:39.806Z,32.49
2023-09-18T12:34:43.195Z,32.51
2023-09-18T12:37:46.186Z,32.27
2023-09-18T12:40:49.292Z,32.08
2023-09-18T12:43:52.142Z,31.51
2023-09-18T12:46:55.276Z,31.27
2023-09-18T12:50:03.861Z,31.19
2023-09-18T12:53:15.773Z,31.10
2023-09-18T12:56:18.707Z,31.05
2023-09-18T12:59:21.412Z,31.15
2023-09-18T13:02:29.739Z,31.41
2023-09-18T13:05:36.388Z,31.41
2023-09-18T13:08:40.191Z,31.38
2023-09-18T13:11:55.723Z,31.39
2023-09-18T13:15:00.522Z,31.18
2023-09-18T13:18:10.705Z,31.38
2023-09-18T13:21:14.958Z,31.80
2023-09-18T13:24:30.710Z,31.92
2023-09-18T13:27:33.564Z,31.65
2023-09-18T13:30:40.649Z,31.54
2023-09-18T13:33:46.026Z,31.39
2023-09-18T13:36:49.558Z,31.37
2023-09-18T13:39:52.692Z,31.39
2023-09-18T13:42:55.704Z,31.50
2023-09-18T13:45:59.822Z,31.63
2023-09-18T13:49:03.524Z,31.92
2023-09-18T13:52:06.416Z,32.01
2023-09-18T13:55:09.941Z,31.86
2023-09-18T13:58:12.768Z,31.72
2023-09-18T14:01:17.173Z,31.57
2023-09-18T14:04:22.266Z,31.43
2023-09-18T14:07:27.042Z,31.33
2023-09-18T14:10:30.191Z,31.16
2023-09-18T14:13:32.541Z,30.84
2023-09-18T14:16:35.533Z,30.60
2023-09-18T14:19:41.698Z,30.44
2023-09-18T14:22:44.850Z,30.38
2023-09-18T14:25:47.239Z,30.41
2023-09-18T14:28:50.443Z,30.37
2023-09-18T14:31:53.064Z,30.33
2023-09-18T14:34:56.179Z,30.23
2023-09-18T14:37:58.782Z,30.16
2023-09-18T14:41:04.137Z,30.11
2023-09-18T14:44:07.359Z,30.01
2023-09-18T14:47:10.332Z,29.90
2023-09-18T14:50:13.876Z,29.81
2023-09-18T14:53:16.833Z,29.71
2023-09-18T14:56:19.249Z,29.59
2023-09-18T14:59:35.530Z,29.44
2023-09-18T15:02:44.309Z,29.45
2023-09-18T15:05:47.655Z,29.40
2023-09-18T15:08:50.552Z,29.37
2023-09-18T15:11:53.669Z,29.32
2023-09-18T15:14:56.979Z,29.29
2023-09-18T15:18:00.084Z,29.31
2023-09-18T15:21:03.008Z,29.24
2023-09-18T15:24:06.278Z,29.28
2023-09-18T15:27:08.704Z,29.19
2023-09-18T15:30:12.524Z,29.16
2023-09-18T15:33:18.427Z,29.19
2023-09-18T15:36:24.241Z,29.13
2023-09-18T15:39:28.657Z,29.06
2023-09-18T15:42:31.588Z,29.08
2023-09-18T15:45:38.945Z,28.97
2023-09-18T15:48:42.276Z,28.86
2023-09-18T15:51:44.861Z,28.84
2023-09-18T15:54:50.424Z,28.88
2023-09-18T15:57:53.565Z,28.86
2023-09-18T16:00:59.158Z,28.83
2023-09-18T16:04:02.032Z,28.75
2023-09-18T16:07:04.718Z,28.70
2023-09-18T16:10:08.342Z,28.60
2023-09-18T16:13:11.974Z,28.55
2023-09-18T16:16:14.801Z,28.41
2023-09-18T16:19:17.970Z,28.36
2023-09-18T16:22:27.319Z,28.27
2023-09-18T16:25:33.634Z,28.23
2023-09-18T16:28:37.833Z,28.17
2023-09-18T16:31:49.470Z,28.10
2023-09-18T16:34:53.048Z,28.07
2023-09-18T16:37:57.448Z,27.97
2023-09-18T16:41:00.437Z,27.88
2023-09-18T16:44:03.184Z,27.81
2023-09-18T16:47:06.532Z,27.69
2023-09-18T16:50:10.305Z,27.56
2023-09-18T16:53:13.136Z,27.51
2023-09-18T16:56:16.127Z,27.42
2023-09-18T16:59:21.031Z,27.31
2023-09-18T17:02:23.743Z,27.21
2023-09-18T17:05:26.534Z,27.07
2023-09-18T17:08:29.467Z,27.03
2023-09-18T17:11:33.065Z,27.01
2023-09-18T17:14:35.958Z,26.98
2023-09-18T17:17:39.611Z,26.92
2023-09-18T17:20:42.790Z,26.85
2023-09-18T17:23:45.610Z,26.87
2023-09-18T17:26:50.947Z,26.86
2023-09-18T17:29:57.605Z,26.94
2023-09-18T17:33:02.563Z,26.86
2023-09-18T17:36:06.943Z,26.80
2023-09-18T17:39:11.428Z,26.74
2023-09-18T17:42:14.367Z,26.74
2023-09-18T17:45:18.156Z,26.72
2023-09-18T17:48:22.988Z,26.65
2023-09-18T17:51:26.000Z,26.62
2023-09-18T17:54:28.829Z,26.64
2023-09-18T17:57:32.348Z,26.57
2023-09-18T18:00:35.291Z,26.59
2023-09-18T18:03:41.113Z,26.49
2023-09-18T18:06:44.754Z,26.39
2023-09-18T18:09:48.005Z,26.44
2023-09-18T18:12:50.682Z,26.36
2023-09-18T18:15:57.357Z,26.31
2023-09-18T18:19:07.967Z,26.27
2023-09-18T18:22:11.354Z,26.23
2023-09-18T18:25:16.897Z,26.19
2023-09-18T18:28:20.170Z,26.14
2023-09-18T18:31:22.858Z,26.11
2023-09-18T18:34:29.018Z,26.12
2023-09-18T18:37:32.343Z,26.14
2023-09-18T18:40:41.944Z,26.08
2023-09-18T18:43:44.673Z,26.12
2023-09-18T18:46:47.890Z,26.01
2023-09-18T18:49:50.330Z,26.02
2023-09-18T18:52:53.491Z,25.98
2023-09-18T18:55:56.203Z,26.03
2023-09-18T18:58:59.429Z,25.98
2023-09-18T19:02:05.021Z,25.92
2023-09-18T19:05:11.757Z,25.91
2023-09-18T19:08:14.212Z,25.84
2023-09-18T19:11:17.897Z,25.83
2023-09-18T19:14:20.371Z,25.80
2023-09-18T19:17:24.512Z,25.81
2023-09-18T19:20:30.296Z,25.78
2023-09-18T19:23:36.468Z,25.80
2023-09-18T19:26:39.094Z,25.81
2023-09-18T19:29:43.565Z,25.82
2023-09-18T19:32:47.919Z,25.77
2023-09-18T19:35:51.828Z,25.87
2023-09-18T19:38:55.056Z,25.82
2023-09-18T19:42:02.749Z,25.78
2023-09-18T19:45:05.818Z,25.73
2023-09-18T19:48:09.171Z,25.75
2023-09-18T19:51:11.686Z,25.74
2023-09-18T19:54:15.917Z,25.69
2023-09-18T19:57:20.023Z,25.73
2023-09-18T20:00:23.497Z,25.57
2023-09-18T20:03:26.578Z,25.56
2023-09-18T20:06:31.243Z,25.54
2023-09-18T20:09:36.460Z,25.54
2023-09-18T20:12:39.862Z,25.48
2023-09-18T20:15:42.856Z,25.43
2023-09-18T20:18:46.512Z,25.38
2023-09-18T20:21:51.017Z,25.38
2023-09-18T20:24:53.995Z,25.30
2023-09-18T20:28:01.076Z,25.29
2023-09-18T20:31:05.484Z,25.23
2023-09-18T20:34:10.264Z,25.20
2023-09-18T20:37:14.159Z,25.18
2023-09-18T20:40:17.108Z,25.12
2023-09-18T20:43:27.728Z,25.04
2023-09-18T20:46:31.593Z,25.02
2023-09-18T20:49:34.332Z,25.06
2023-09-18T20:52:38.408Z,24.95
2023-09-18T20:55:41.450Z,24.93
2023-09-18T20:58:44.130Z,24.90
2023-09-18T21:01:47.168Z,24.94
2023-09-18T21:04:51.159Z,24.92
2023-09-18T21:07:55.294Z,24.86
2023-09-18T21:11:00.681Z,24.82
2023-09-18T21:14:04.379Z,24.73
2023-09-18T21:17:08.487Z,24.72
2023-09-18T21:20:11.626Z,24.74
2023-09-18T21:23:14.967Z,24.80
2023-09-18T21:26:17.703Z,24.75
2023-09-18T21:29:25.550Z,24.76
2023-09-18T21:32:30.890Z,24.82
2023-09-18T21:35:33.867Z,24.76
2023-09-18T21:38:36.974Z,24.69
2023-09-18T21:41:41.342Z,24.74
2023-09-18T21:44:45.901Z,24.73
2023-09-18T21:47:51.865Z,24.72
2023-09-18T21:50:54.636Z,24.66
2023-09-18T21:53:57.340Z,24.72
2023-09-18T21:57:00.611Z,24.73
2023-09-18T22:00:24.351Z,24.71
2023-09-18T22:03:29.454Z,24.60
2023-09-18T22:06:32.883Z,24.62
2023-09-18T22:09:35.882Z,24.65
2023-09-18T22:12:39.599Z,24.74
2023-09-18T22:15:42.747Z,24.80
2023-09-18T22:18:47.858Z,24.83
2023-09-18T22:21:50.900Z,24.81
2023-09-18T22:24:53.471Z,24.82
2023-09-18T22:27:56.925Z,24.83
2023-09-18T22:30:59.320Z,24.81
2023-09-18T22:34:02.241Z,24.86
2023-09-18T22:37:05.850Z,24.80
2023-09-18T22:40:12.129Z,24.85
2023-09-18T22:43:38.404Z,24.79
2023-09-18T22:47:02.830Z,24.71
2023-09-18T22:50:24.029Z,24.64
2023-09-18T22:53:27.006Z,24.69
2023-09-18T22:56:30.822Z,24.64
2023-09-18T22:59:33.758Z,24.53
2023-09-18T23:02:43.464Z,24.54
2023-09-18T23:05:49.921Z,24.53
2023-09-18T23:08:54.637Z,24.51
2023-09-18T23:11:57.960Z,24.40
2023-09-18T23:15:01.215Z,24.37
2023-09-18T23:18:07.242Z,24.37
2023-09-18T23:21:10.574Z,24.34
2023-09-18T23:24:14.727Z,24.44
2023-09-18T23:27:18.427Z,24.33
2023-09-18T23:30:21.910Z,24.36
2023-09-18T23:33:28.808Z,24.23
2023-09-18T23:36:33.508Z,24.21
2023-09-18T23:39:39.666Z,24.25
2023-09-18T23:42:43.414Z,24.22
2023-09-18T23:45:45.767Z,24.22
2023-09-18T23:48:49.016Z,24.23
2023-09-18T23:51:55.261Z,24.13
2023-09-18T23:54:58.205Z,24.15
2023-09-18T23:58:01.247Z,24.16
